Time;durP1;ratioP1;P1;durP2;ratioP2;P2;SDS_P1;SDS_P2;PMS_P1;PMS_P2;Temp;Humidity;BMP_temperature;BMP_pressure;BME280_temperature;BME280_humidity;BME280_pressure;Samples;Min_cycle;Max_cycle;Signal;HPM_P1;HPM_P2
2021/09/17 00:00:10;;;;;;;41.23;22.73;;;;;;;;;;781649;174;921253;-73
2021/09/17 00:02:35;;;;;;;34.57;22.67;;;;;;;;;;788872;174;919827;-72
2021/09/17 00:05:01;;;;;;;37.10;23.03;;;;;;;;;;790598;174;919121;-71
2021/09/17 00:07:27;;;;;;;39.07;22.03;;;;;;;;;;795520;174;918909;-70
2021/09/17 00:09:53;;;;;;;41.23;25.27;;;;;;;;;;790092;175;920299;-70
2021/09/17 00:12:19;;;;;;;34.40;24.03;;;;;;;;;;787510;175;919026;-69
2021/09/17 00:14:45;;;;;;;41.27;24.37;;;;;;;;;;794856;174;919011;-69
2021/09/17 00:17:10;;;;;;;42.60;23.90;;;;;;;;;;789505;174;919152;-70
2021/09/17 00:19:36;;;;;;;42.53;26.85;;;;;;;;;;780034;175;918969;-69
2021/09/17 00:22:02;;;;;;;38.70;25.37;;;;;;;;;;795441;175;938364;-68
2021/09/17 00:24:28;;;;;;;37.43;24.37;;;;;;;;;;788217;175;919176;-69
2021/09/17 00:26:54;;;;;;;50.53;26.10;;;;;;;;;;777456;175;918494;-68
2021/09/17 00:29:20;;;;;;;35.33;23.30;;;;;;;;;;787390;175;918666;-67
2021/09/17 00:31:46;;;;;;;38.50;24.13;;;;;;;;;;797025;174;918375;-67
2021/09/17 00:34:11;;;;;;;32.20;21.00;;;;;;;;;;790752;175;919207;-68
2021/09/17 00:36:37;;;;;;;31.20;20.73;;;;;;;;;;792665;175;919324;-66
2021/09/17 00:39:03;;;;;;;19.60;13.47;;;;;;;;;;795807;174;918356;-67
2021/09/17 00:41:29;;;;;;;11.40;8.93;;;;;;;;;;793692;174;919316;-67
2021/09/17 00:43:55;;;;;;;8.63;6.97;;;;;;;;;;791814;173;918484;-66
2021/09/17 00:46:21;;;;;;;12.33;6.20;;;;;;;;;;799836;174;919295;-67
2021/09/17 00:48:46;;;;;;;9.03;6.20;;;;;;;;;;794190;173;919610;-65
2021/09/17 00:51:12;;;;;;;7.03;5.70;;;;;;;;;;775316;178;920119;-64
2021/09/17 00:53:38;;;;;;;7.30;5.70;;;;;;;;;;766396;180;918513;-63
2021/09/17 00:56:04;;;;;;;5.30;4.50;;;;;;;;;;769633;179;918596;-65
2021/09/17 00:58:30;;;;;;;5.17;3.87;;;;;;;;;;778427;178;918964;-66
2021/09/17 01:00:56;;;;;;;4.17;3.57;;;;;;;;;;782263;176;919413;-66
2021/09/17 01:03:22;;;;;;;4.47;3.50;;;;;;;;;;782510;174;917480;-66
2021/09/17 01:05:48;;;;;;;5.10;4.00;;;;;;;;;;768382;180;919606;-66
2021/09/17 01:08:14;;;;;;;5.28;3.12;;;;;;;;;;773481;180;918868;-65
2021/09/17 01:10:39;;;;;;;4.90;3.40;;;;;;;;;;782405;177;918495;-64
2021/09/17 01:13:05;;;;;;;5.90;4.10;;;;;;;;;;777181;178;919840;-63
2021/09/17 01:15:31;;;;;;;5.53;3.50;;;;;;;;;;763226;179;918903;-62
2021/09/17 01:17:57;;;;;;;4.60;3.70;;;;;;;;;;776420;179;919841;-61
2021/09/17 01:20:23;;;;;;;7.43;3.27;;;;;;;;;;771865;179;918808;-62
2021/09/17 01:22:49;;;;;;;7.37;3.93;;;;;;;;;;778284;176;920023;-62
2021/09/17 01:25:15;;;;;;;7.30;4.80;;;;;;;;;;768934;179;920181;-61
2021/09/17 01:27:41;;;;;;;6.13;4.43;;;;;;;;;;777008;179;916429;-61
2021/09/17 01:30:07;;;;;;;7.90;4.13;;;;;;;;;;772290;180;914919;-62
2021/09/17 01:32:33;;;;;;;15.73;4.50;;;;;;;;;;765049;180;914761;-62
2021/09/17 01:34:59;;;;;;;6.10;3.67;;;;;;;;;;769988;179;916104;-62
2021/09/17 01:37:25;;;;;;;8.57;5.07;;;;;;;;;;781004;175;918812;-62
2021/09/17 01:39:50;;;;;;;7.70;4.40;;;;;;;;;;781730;178;919766;-63
2021/09/17 01:42:16;;;;;;;6.70;3.13;;;;;;;;;;777227;179;918926;-63
2021/09/17 01:44:42;;;;;;;5.45;3.60;;;;;;;;;;784529;175;917966;-63
2021/09/17 01:47:08;;;;;;;6.77;4.07;;;;;;;;;;771773;177;919642;-65
2021/09/17 01:49:34;;;;;;;7.93;3.45;;;;;;;;;;767745;177;919507;-63
2021/09/17 01:52:00;;;;;;;7.63;4.10;;;;;;;;;;767746;180;919057;-62
2021/09/17 01:54:26;;;;;;;6.57;4.17;;;;;;;;;;778591;178;919143;-64
2021/09/17 01:56:51;;;;;;;7.63;3.60;;;;;;;;;;780908;177;921434;-64
2021/09/17 01:59:17;;;;;;;10.67;4.77;;;;;;;;;;785802;178;918335;-63
2021/09/17 02:01:43;;;;;;;5.40;3.67;;;;;;;;;;764860;180;918949;-63
2021/09/17 02:04:09;;;;;;;5.10;4.50;;;;;;;;;;789236;174;919972;-64
2021/09/17 02:06:35;;;;;;;9.60;6.57;;;;;;;;;;778997;178;921524;-63
2021/09/17 02:09:02;;;;;;;5.80;4.00;;;;;;;;;;778447;178;919865;-66
2021/09/17 02:11:27;;;;;;;11.37;4.27;;;;;;;;;;767428;181;918911;-64
2021/09/17 02:13:52;;;;;;;6.77;4.27;;;;;;;;;;778693;178;919417;-64
2021/09/17 02:16:18;;;;;;;12.03;5.60;;;;;;;;;;774870;179;918941;-61
2021/09/17 02:18:44;;;;;;;4.77;3.90;;;;;;;;;;766003;180;919234;-63
2021/09/17 02:21:10;;;;;;;7.83;4.47;;;;;;;;;;780959;178;919239;-63
2021/09/17 02:23:36;;;;;;;5.80;4.73;;;;;;;;;;782884;178;919258;-62
2021/09/17 02:26:02;;;;;;;5.97;4.53;;;;;;;;;;764502;180;924064;-62
2021/09/17 02:28:27;;;;;;;6.35;4.68;;;;;;;;;;779866;177;919712;-63
2021/09/17 02:30:53;;;;;;;6.80;4.57;;;;;;;;;;785062;177;919002;-63
2021/09/17 02:33:19;;;;;;;5.87;4.57;;;;;;;;;;774040;177;919665;-62
2021/09/17 02:35:45;;;;;;;6.55;4.78;;;;;;;;;;779995;177;919408;-62
2021/09/17 02:38:11;;;;;;;7.60;4.85;;;;;;;;;;778202;178;918959;-61
2021/09/17 02:40:37;;;;;;;7.50;5.70;;;;;;;;;;779114;178;918506;-61
2021/09/17 02:43:03;;;;;;;8.27;5.73;;;;;;;;;;772644;177;918989;-62
2021/09/17 02:45:29;;;;;;;7.07;5.20;;;;;;;;;;766848;180;919058;-62
2021/09/17 02:47:55;;;;;;;5.93;4.60;;;;;;;;;;777164;179;919160;-61
2021/09/17 02:50:20;;;;;;;6.60;5.07;;;;;;;;;;777682;178;918337;-62
2021/09/17 02:52:46;;;;;;;6.70;5.50;;;;;;;;;;777646;178;919171;-62
2021/09/17 02:55:12;;;;;;;6.50;5.60;;;;;;;;;;783065;178;919510;-62
2021/09/17 02:57:38;;;;;;;8.47;5.77;;;;;;;;;;753318;183;918361;-61
2021/09/17 03:00:05;;;;;;;7.10;5.43;;;;;;;;;;771617;181;918756;-61
2021/09/17 03:02:32;;;;;;;5.77;5.17;;;;;;;;;;784021;178;920255;-65
2021/09/17 03:04:58;;;;;;;7.17;5.47;;;;;;;;;;773911;179;920800;-62
2021/09/17 03:07:24;;;;;;;6.63;5.13;;;;;;;;;;793428;174;918460;-62
2021/09/17 03:09:50;;;;;;;6.73;5.90;;;;;;;;;;780681;178;921805;-61
2021/09/17 03:12:16;;;;;;;7.37;5.10;;;;;;;;;;781283;177;915798;-61
2021/09/17 03:14:42;;;;;;;6.60;5.37;;;;;;;;;;779731;177;920827;-61
2021/09/17 03:17:08;;;;;;;10.70;6.00;;;;;;;;;;775968;178;919223;-61
2021/09/17 03:19:33;;;;;;;9.97;5.40;;;;;;;;;;782692;175;923798;-63
2021/09/17 03:22:00;;;;;;;6.70;5.87;;;;;;;;;;780715;175;916295;-61
2021/09/17 03:24:25;;;;;;;7.00;5.50;;;;;;;;;;778791;178;918701;-64
2021/09/17 03:26:51;;;;;;;6.70;5.67;;;;;;;;;;786493;178;921111;-62
2021/09/17 03:29:17;;;;;;;6.53;5.23;;;;;;;;;;761226;182;915962;-61
2021/09/17 03:31:42;;;;;;;6.10;4.50;;;;;;;;;;782204;178;919027;-62
2021/09/17 03:34:08;;;;;;;6.07;4.30;;;;;;;;;;778294;178;920409;-61
2021/09/17 03:36:42;;;;;;;7.10;5.60;;;;;;;;;;782616;178;914787;-61
2021/09/17 03:39:00;;;;;;;6.97;5.37;;;;;;;;;;769357;179;919109;-60
2021/09/17 03:41:26;;;;;;;7.00;5.43;;;;;;;;;;778215;177;919819;-62
2021/09/17 03:43:52;;;;;;;7.33;6.40;;;;;;;;;;780677;178;918907;-61
2021/09/17 03:46:18;;;;;;;6.00;4.93;;;;;;;;;;755507;183;920919;-63
2021/09/17 03:48:43;;;;;;;6.70;5.73;;;;;;;;;;780229;178;921853;-60
2021/09/17 03:51:09;;;;;;;6.63;5.23;;;;;;;;;;777315;177;918472;-60
2021/09/17 03:53:35;;;;;;;16.00;5.90;;;;;;;;;;779016;178;918051;-61
2021/09/17 03:56:01;;;;;;;10.03;5.30;;;;;;;;;;778414;178;919362;-60
2021/09/17 03:58:27;;;;;;;6.40;5.70;;;;;;;;;;770652;180;926695;-60
2021/09/17 04:00:53;;;;;;;6.40;5.00;;;;;;;;;;776876;180;919117;-61
2021/09/17 04:03:18;;;;;;;7.57;5.90;;;;;;;;;;767333;180;918779;-62
2021/09/17 04:05:44;;;;;;;7.17;5.97;;;;;;;;;;780729;178;919970;-61
2021/09/17 04:08:10;;;;;;;9.20;6.07;;;;;;;;;;778955;179;918973;-62
2021/09/17 04:10:36;;;;;;;6.87;5.47;;;;;;;;;;784494;178;917443;-61
2021/09/17 04:13:02;;;;;;;10.20;6.43;;;;;;;;;;768179;179;1012685;-60
2021/09/17 04:15:28;;;;;;;10.00;6.37;;;;;;;;;;777825;179;918521;-60
2021/09/17 04:17:53;;;;;;;8.03;5.90;;;;;;;;;;785628;178;626740;-61
2021/09/17 04:20:19;;;;;;;7.30;6.15;;;;;;;;;;778335;179;917993;-60
2021/09/17 04:22:45;;;;;;;6.77;5.13;;;;;;;;;;777480;179;917326;-60
2021/09/17 04:25:11;;;;;;;7.60;6.23;;;;;;;;;;775511;180;619382;-60
2021/09/17 04:27:37;;;;;;;8.47;5.80;;;;;;;;;;771029;179;625998;-61
2021/09/17 04:30:04;;;;;;;6.47;5.37;;;;;;;;;;768743;180;620731;-61
2021/09/17 04:32:29;;;;;;;7.53;5.80;;;;;;;;;;788603;178;637479;-61
2021/09/17 04:34:55;;;;;;;6.40;5.57;;;;;;;;;;771123;180;626243;-61
2021/09/17 04:37:21;;;;;;;7.37;6.50;;;;;;;;;;782929;178;918991;-60
2021/09/17 04:39:47;;;;;;;8.47;6.30;;;;;;;;;;774196;179;919152;-61
2021/09/17 04:42:13;;;;;;;6.70;5.30;;;;;;;;;;772691;177;925778;-61
2021/09/17 04:44:39;;;;;;;7.40;5.53;;;;;;;;;;775172;176;919550;-61
2021/09/17 04:47:04;;;;;;;7.57;5.83;;;;;;;;;;784220;178;919218;-60
2021/09/17 04:49:30;;;;;;;11.30;6.30;;;;;;;;;;774170;177;920304;-60
2021/09/17 04:51:56;;;;;;;7.50;6.10;;;;;;;;;;779207;178;919453;-62
2021/09/17 04:54:22;;;;;;;8.30;5.60;;;;;;;;;;777528;178;919666;-61
2021/09/17 04:56:48;;;;;;;7.60;6.47;;;;;;;;;;794673;175;918423;-60
2021/09/17 04:59:14;;;;;;;7.90;6.30;;;;;;;;;;774151;179;919184;-60
2021/09/17 05:01:40;;;;;;;9.10;6.80;;;;;;;;;;781618;178;916934;-61
2021/09/17 05:04:05;;;;;;;7.50;6.47;;;;;;;;;;790419;173;919915;-61
2021/09/17 05:06:31;;;;;;;7.20;6.03;;;;;;;;;;763232;180;920007;-61
2021/09/17 05:08:57;;;;;;;8.03;6.30;;;;;;;;;;766671;180;919431;-61
2021/09/17 05:11:23;;;;;;;8.37;7.00;;;;;;;;;;771506;180;919521;-60
2021/09/17 05:13:49;;;;;;;13.00;7.53;;;;;;;;;;769460;179;919458;-60
2021/09/17 05:16:14;;;;;;;10.17;7.40;;;;;;;;;;768114;176;918525;-60
2021/09/17 05:18:41;;;;;;;8.03;7.23;;;;;;;;;;765518;180;919795;-59
2021/09/17 05:21:06;;;;;;;8.60;7.00;;;;;;;;;;766328;179;918939;-60
2021/09/17 05:23:33;;;;;;;8.60;6.53;;;;;;;;;;767230;179;918890;-60
2021/09/17 05:25:58;;;;;;;10.10;6.80;;;;;;;;;;767548;180;918107;-60
2021/09/17 05:28:24;;;;;;;11.67;7.30;;;;;;;;;;779171;178;918566;-59
2021/09/17 05:30:49;;;;;;;9.37;6.70;;;;;;;;;;774227;177;1128476;-60
2021/09/17 05:33:15;;;;;;;10.00;7.68;;;;;;;;;;769501;174;1021641;-60
2021/09/17 05:35:41;;;;;;;8.43;7.40;;;;;;;;;;792032;174;919486;-60
2021/09/17 05:38:07;;;;;;;9.13;7.23;;;;;;;;;;766347;180;918748;-61
2021/09/17 05:40:33;;;;;;;8.70;7.07;;;;;;;;;;784501;175;918972;-60
2021/09/17 05:42:59;;;;;;;9.00;7.40;;;;;;;;;;774774;179;919727;-61
2021/09/17 05:45:25;;;;;;;7.67;6.87;;;;;;;;;;767804;177;920026;-61
2021/09/17 05:47:50;;;;;;;9.40;6.70;;;;;;;;;;762790;181;919655;-60
2021/09/17 05:50:17;;;;;;;9.50;6.90;;;;;;;;;;780202;176;919247;-61
2021/09/17 05:52:43;;;;;;;8.77;7.67;;;;;;;;;;784698;178;886272;-60
2021/09/17 05:55:09;;;;;;;11.87;8.00;;;;;;;;;;777477;179;919752;-60
2021/09/17 05:57:34;;;;;;;11.57;8.10;;;;;;;;;;790624;174;919281;-60
2021/09/17 06:00:00;;;;;;;12.40;8.97;;;;;;;;;;770099;179;917889;-60
2021/09/17 06:02:26;;;;;;;13.17;9.27;;;;;;;;;;762709;181;922188;-61
2021/09/17 06:04:52;;;;;;;9.77;7.93;;;;;;;;;;780149;178;920258;-60
2021/09/17 06:07:18;;;;;;;11.93;8.20;;;;;;;;;;783580;178;920131;-60
2021/09/17 06:09:44;;;;;;;9.53;7.70;;;;;;;;;;770472;180;919812;-59
2021/09/17 06:12:09;;;;;;;8.70;6.90;;;;;;;;;;769729;180;919516;-60
2021/09/17 06:14:35;;;;;;;9.10;7.77;;;;;;;;;;775975;175;920751;-60
2021/09/17 06:17:01;;;;;;;10.03;7.80;;;;;;;;;;771534;179;927141;-60
2021/09/17 06:19:27;;;;;;;12.60;9.73;;;;;;;;;;768518;180;919248;-59
2021/09/17 06:21:53;;;;;;;12.17;9.47;;;;;;;;;;760705;182;916596;-60
2021/09/17 06:24:19;;;;;;;13.87;9.20;;;;;;;;;;772302;179;921932;-62
2021/09/17 06:26:44;;;;;;;12.87;8.83;;;;;;;;;;778871;178;920342;-60
2021/09/17 06:29:10;;;;;;;10.80;8.20;;;;;;;;;;782142;175;920013;-60
2021/09/17 06:31:36;;;;;;;9.30;7.60;;;;;;;;;;773728;179;917721;-60
2021/09/17 06:34:03;;;;;;;11.03;8.70;;;;;;;;;;783471;175;920254;-60
2021/09/17 06:36:29;;;;;;;13.80;9.60;;;;;;;;;;779795;177;916933;-59
2021/09/17 06:38:55;;;;;;;13.73;8.70;;;;;;;;;;774494;177;919717;-59
2021/09/17 06:41:20;;;;;;;11.70;9.50;;;;;;;;;;765129;178;917076;-59
2021/09/17 06:43:46;;;;;;;11.60;8.30;;;;;;;;;;782290;176;922134;-60
2021/09/17 06:46:12;;;;;;;13.60;8.80;;;;;;;;;;770327;180;918733;-59
2021/09/17 06:48:38;;;;;;;12.83;8.80;;;;;;;;;;774895;179;913840;-59
2021/09/17 06:51:04;;;;;;;11.20;8.40;;;;;;;;;;773872;180;914416;-59
2021/09/17 06:53:30;;;;;;;11.03;8.63;;;;;;;;;;770221;179;914460;-59
2021/09/17 06:55:55;;;;;;;10.60;8.03;;;;;;;;;;770969;179;913515;-59
2021/09/17 06:58:22;;;;;;;11.03;9.30;;;;;;;;;;765096;179;919476;-59
2021/09/17 07:00:47;;;;;;;12.07;8.87;;;;;;;;;;774584;179;920077;-59
2021/09/17 07:03:13;;;;;;;17.53;10.43;;;;;;;;;;777293;179;919165;-59
2021/09/17 07:05:39;;;;;;;16.20;10.17;;;;;;;;;;749604;183;1021495;-59
2021/09/17 07:08:06;;;;;;;12.57;9.60;;;;;;;;;;778321;178;919888;-58
2021/09/17 07:10:31;;;;;;;12.90;9.20;;;;;;;;;;778000;178;919813;-59
2021/09/17 07:12:57;;;;;;;11.37;8.80;;;;;;;;;;785656;178;919615;-59
2021/09/17 07:15:23;;;;;;;12.60;9.40;;;;;;;;;;780429;178;919457;-59
2021/09/17 07:17:49;;;;;;;13.40;9.10;;;;;;;;;;778505;178;919139;-60
2021/09/17 07:20:15;;;;;;;12.37;8.50;;;;;;;;;;781392;178;920594;-59
2021/09/17 07:22:41;;;;;;;11.07;9.00;;;;;;;;;;781243;178;919156;-59
2021/09/17 07:25:08;;;;;;;12.80;9.97;;;;;;;;;;764210;179;919515;-59
2021/09/17 07:27:33;;;;;;;14.90;9.20;;;;;;;;;;769076;179;920288;-59
2021/09/17 07:29:59;;;;;;;12.17;9.40;;;;;;;;;;771248;180;919552;-59
2021/09/17 07:32:25;;;;;;;13.03;10.37;;;;;;;;;;771084;179;964832;-60
2021/09/17 07:34:51;;;;;;;13.87;10.90;;;;;;;;;;765524;179;919066;-59
2021/09/17 07:37:17;;;;;;;14.17;10.53;;;;;;;;;;787163;177;919597;-59
2021/09/17 07:39:43;;;;;;;13.50;11.23;;;;;;;;;;776717;177;920031;-60
2021/09/17 07:42:08;;;;;;;13.40;10.60;;;;;;;;;;767595;179;919810;-60
2021/09/17 07:44:34;;;;;;;13.30;10.30;;;;;;;;;;768856;179;917966;-60
2021/09/17 07:47:01;;;;;;;13.40;10.67;;;;;;;;;;755733;183;919574;-59
2021/09/17 07:49:26;;;;;;;13.30;9.70;;;;;;;;;;771274;179;919429;-60
2021/09/17 07:51:52;;;;;;;17.63;12.43;;;;;;;;;;778647;179;919070;-62
2021/09/17 07:54:17;;;;;;;14.15;11.50;;;;;;;;;;769963;179;919299;-61
2021/09/17 07:56:43;;;;;;;16.73;12.03;;;;;;;;;;771776;179;919222;-60
2021/09/17 07:59:09;;;;;;;14.83;11.20;;;;;;;;;;784819;174;918576;-60
2021/09/17 08:01:35;;;;;;;14.87;11.80;;;;;;;;;;777408;179;919684;-60
2021/09/17 08:04:01;;;;;;;14.87;10.77;;;;;;;;;;778866;178;919950;-60
2021/09/17 08:06:27;;;;;;;18.55;12.95;;;;;;;;;;780376;178;930909;-60
2021/09/17 08:08:53;;;;;;;15.60;13.13;;;;;;;;;;772811;179;919607;-59
2021/09/17 08:11:18;;;;;;;14.70;10.90;;;;;;;;;;764821;177;956440;-62
2021/09/17 08:13:44;;;;;;;16.50;11.80;;;;;;;;;;780651;178;919575;-61
2021/09/17 08:16:10;;;;;;;14.13;11.13;;;;;;;;;;784516;178;919382;-60
2021/09/17 08:18:36;;;;;;;15.37;12.23;;;;;;;;;;766907;181;918742;-60
2021/09/17 08:21:03;;;;;;;15.30;12.97;;;;;;;;;;775119;179;919951;-61
2021/09/17 08:23:29;;;;;;;15.52;13.52;;;;;;;;;;781051;178;970535;-61
2021/09/17 08:25:55;;;;;;;16.10;12.20;;;;;;;;;;779589;179;919421;-60
2021/09/17 08:28:23;;;;;;;17.20;12.30;;;;;;;;;;747912;183;1021281;-60
2021/09/17 08:30:49;;;;;;;20.40;13.60;;;;;;;;;;779491;178;918597;-61
2021/09/17 08:33:14;;;;;;;15.23;12.07;;;;;;;;;;784872;178;919218;-61
2021/09/17 08:35:40;;;;;;;14.70;11.90;;;;;;;;;;786951;175;919501;-60
2021/09/17 08:38:06;;;;;;;15.68;11.80;;;;;;;;;;777305;178;923128;-63
2021/09/17 08:40:32;;;;;;;16.00;10.93;;;;;;;;;;796591;175;920866;-61
2021/09/17 08:42:59;;;;;;;13.47;10.83;;;;;;;;;;786448;175;918875;-62
2021/09/17 08:45:24;;;;;;;15.67;11.97;;;;;;;;;;760115;182;917052;-64
2021/09/17 08:47:50;;;;;;;15.02;11.40;;;;;;;;;;774395;179;920998;-60
2021/09/17 08:50:15;;;;;;;16.30;12.47;;;;;;;;;;774942;179;917948;-61
2021/09/17 08:52:41;;;;;;;16.20;11.10;;;;;;;;;;779807;175;918779;-62
2021/09/17 08:55:07;;;;;;;14.70;10.30;;;;;;;;;;788762;175;914766;-61
2021/09/17 08:57:33;;;;;;;12.33;10.70;;;;;;;;;;797049;175;964686;-61
2021/09/17 08:59:59;;;;;;;16.40;12.50;;;;;;;;;;793565;174;916410;-61
2021/09/17 09:02:25;;;;;;;21.20;13.38;;;;;;;;;;789899;174;916026;-62
2021/09/17 09:04:56;;;;;;;16.13;13.30;;;;;;;;;;797936;174;916578;-61
2021/09/17 09:07:26;;;;;;;11.97;9.90;;;;;;;;;;784357;175;920719;-63
2021/09/17 09:09:52;;;;;;;18.10;12.10;;;;;;;;;;792957;175;919656;-63
2021/09/17 09:12:18;;;;;;;13.30;11.63;;;;;;;;;;790711;174;918929;-63
2021/09/17 09:14:44;;;;;;;12.07;10.20;;;;;;;;;;799347;174;919355;-66
2021/09/17 09:17:09;;;;;;;14.67;10.60;;;;;;;;;;787040;175;919790;-63
2021/09/17 09:19:37;;;;;;;12.57;9.93;;;;;;;;;;790435;175;919500;-63
2021/09/17 09:22:11;;;;;;;14.10;11.40;;;;;;;;;;794028;175;919376;-64
2021/09/17 09:24:40;;;;;;;12.67;10.93;;;;;;;;;;787602;176;919146;-63
2021/09/17 09:27:05;;;;;;;14.90;11.17;;;;;;;;;;763500;177;1124675;-64
2021/09/17 09:29:30;;;;;;;12.77;11.40;;;;;;;;;;782036;178;919386;-64
2021/09/17 09:31:56;;;;;;;12.83;10.47;;;;;;;;;;778067;178;619390;-64
2021/09/17 09:34:24;;;;;;;11.83;10.63;;;;;;;;;;763007;182;919417;-64
2021/09/17 09:36:48;;;;;;;11.30;9.30;;;;;;;;;;763800;181;919777;-64
2021/09/17 09:39:14;;;;;;;17.30;10.27;;;;;;;;;;760506;182;919217;-63
2021/09/17 09:41:40;;;;;;;12.27;10.70;;;;;;;;;;773497;178;916622;-65
2021/09/17 09:44:14;;;;;;;10.53;8.60;;;;;;;;;;779075;178;918856;-64
2021/09/17 09:46:37;;;;;;;11.07;9.50;;;;;;;;;;762791;179;919312;-63
2021/09/17 09:49:04;;;;;;;10.50;9.07;;;;;;;;;;772159;179;917259;-64
2021/09/17 09:51:29;;;;;;;11.30;8.93;;;;;;;;;;774697;179;619082;-64
2021/09/17 09:53:57;;;;;;;11.50;8.53;;;;;;;;;;769364;180;925712;-64
2021/09/17 09:56:21;;;;;;;10.70;8.80;;;;;;;;;;772928;180;920268;-63
2021/09/17 09:58:47;;;;;;;11.80;9.83;;;;;;;;;;766702;179;918618;-64
2021/09/17 10:01:13;;;;;;;11.60;9.70;;;;;;;;;;777083;175;924680;-64
2021/09/17 10:03:39;;;;;;;10.57;8.80;;;;;;;;;;779502;175;930725;-63
2021/09/17 10:06:04;;;;;;;12.97;9.93;;;;;;;;;;781370;178;918863;-63
2021/09/17 10:08:30;;;;;;;13.27;9.40;;;;;;;;;;762462;179;920162;-63
2021/09/17 10:10:58;;;;;;;9.83;8.80;;;;;;;;;;771324;177;927683;-63
2021/09/17 10:13:22;;;;;;;14.63;8.60;;;;;;;;;;789428;175;918584;-63
2021/09/17 10:15:48;;;;;;;9.33;8.30;;;;;;;;;;765653;181;918426;-64
2021/09/17 10:18:14;;;;;;;7.90;6.63;;;;;;;;;;777893;178;1226154;-63
2021/09/17 10:20:40;;;;;;;6.57;5.75;;;;;;;;;;787163;176;918250;-64
2021/09/17 10:23:07;;;;;;;8.70;7.37;;;;;;;;;;760877;180;919929;-62
2021/09/17 10:25:33;;;;;;;7.77;5.80;;;;;;;;;;761937;179;932781;-62
2021/09/17 10:28:04;;;;;;;9.53;7.40;;;;;;;;;;773932;180;918710;-64
2021/09/17 10:30:29;;;;;;;10.80;6.70;;;;;;;;;;779688;179;916614;-62
2021/09/17 10:32:55;;;;;;;10.30;7.10;;;;;;;;;;773165;175;919436;-62
2021/09/17 10:35:22;;;;;;;9.03;6.97;;;;;;;;;;777004;178;918198;-62
2021/09/17 10:37:52;;;;;;;9.55;7.82;;;;;;;;;;780043;178;914745;-62
2021/09/17 10:40:18;;;;;;;9.63;7.40;;;;;;;;;;774680;178;918890;-62
2021/09/17 10:42:50;;;;;;;13.57;10.00;;;;;;;;;;780770;178;920353;-64
2021/09/17 10:45:16;;;;;;;10.97;8.20;;;;;;;;;;777419;178;920205;-62
2021/09/17 10:47:56;;;;;;;13.77;8.83;;;;;;;;;;783462;177;919459;-63
2021/09/17 10:50:23;;;;;;;13.90;9.00;;;;;;;;;;780838;179;915776;-65
2021/09/17 10:52:50;;;;;;;9.90;8.50;;;;;;;;;;774542;179;915988;-64
2021/09/17 10:55:20;;;;;;;8.88;7.55;;;;;;;;;;777385;178;917153;-64
2021/09/17 10:57:52;;;;;;;13.43;8.30;;;;;;;;;;769346;176;915370;-63
2021/09/17 11:00:33;;;;;;;18.63;9.57;;;;;;;;;;783553;176;915649;-63
2021/09/17 11:02:59;;;;;;;14.10;9.83;;;;;;;;;;769347;179;913905;-63
2021/09/17 11:05:25;;;;;;;9.30;7.97;;;;;;;;;;765756;180;1223304;-63
2021/09/17 11:07:51;;;;;;;12.57;8.47;;;;;;;;;;780530;178;915998;-64
2021/09/17 11:10:22;;;;;;;11.20;8.80;;;;;;;;;;766308;179;1240673;-64
2021/09/17 11:12:47;;;;;;;10.20;7.50;;;;;;;;;;777110;179;916999;-63
2021/09/17 11:15:13;;;;;;;10.50;8.37;;;;;;;;;;763186;180;916326;-63
2021/09/17 11:17:52;;;;;;;12.00;8.20;;;;;;;;;;770725;179;916841;-66
2021/09/17 11:20:19;;;;;;;10.20;8.40;;;;;;;;;;761243;181;916035;-64
2021/09/17 11:22:46;;;;;;;10.80;8.70;;;;;;;;;;779520;177;915584;-64
2021/09/17 11:25:12;;;;;;;12.20;8.17;;;;;;;;;;755499;183;919164;-64
2021/09/17 11:27:42;;;;;;;11.57;8.93;;;;;;;;;;775322;179;919913;-64
2021/09/17 11:30:07;;;;;;;10.50;7.87;;;;;;;;;;774125;180;919389;-64
2021/09/17 11:32:33;;;;;;;13.63;9.23;;;;;;;;;;772392;179;919867;-64
2021/09/17 11:35:03;;;;;;;10.30;9.17;;;;;;;;;;772289;179;920917;-64
2021/09/17 11:37:28;;;;;;;16.10;8.73;;;;;;;;;;768525;180;626731;-64
2021/09/17 11:39:54;;;;;;;12.17;8.30;;;;;;;;;;777467;180;625142;-64
2021/09/17 11:42:20;;;;;;;8.80;7.90;;;;;;;;;;757945;180;918667;-64
2021/09/17 11:44:47;;;;;;;7.47;6.07;;;;;;;;;;767457;180;919413;-64
2021/09/17 11:47:14;;;;;;;7.62;6.50;;;;;;;;;;781520;178;1021275;-63
2021/09/17 11:49:41;;;;;;;8.00;6.40;;;;;;;;;;780496;178;919121;-64
2021/09/17 11:52:06;;;;;;;9.50;6.63;;;;;;;;;;777662;178;918697;-65
2021/09/17 11:54:32;;;;;;;9.37;6.87;;;;;;;;;;766178;179;920095;-64
2021/09/17 11:56:59;;;;;;;10.13;6.73;;;;;;;;;;774707;180;920304;-63
2021/09/17 11:59:31;;;;;;;8.13;5.47;;;;;;;;;;772737;179;920344;-65
2021/09/17 12:02:17;;;;;;;6.70;5.40;;;;;;;;;;782638;175;918880;-64
2021/09/17 12:04:44;;;;;;;10.30;5.47;;;;;;;;;;767816;179;926440;-64
2021/09/17 12:07:10;;;;;;;7.50;5.63;;;;;;;;;;771193;179;918340;-63
2021/09/17 12:09:35;;;;;;;7.10;5.23;;;;;;;;;;774162;179;920130;-64
2021/09/17 12:12:01;;;;;;;9.00;5.37;;;;;;;;;;768383;179;918342;-63
2021/09/17 12:14:27;;;;;;;5.97;4.40;;;;;;;;;;766111;179;918795;-64
2021/09/17 12:16:53;;;;;;;7.67;4.80;;;;;;;;;;775912;179;918984;-63
2021/09/17 12:19:20;;;;;;;5.47;4.60;;;;;;;;;;767740;180;918498;-63
2021/09/17 12:21:45;;;;;;;7.43;4.63;;;;;;;;;;769457;180;919439;-63
2021/09/17 12:24:15;;;;;;;7.13;5.30;;;;;;;;;;771466;179;919426;-64
2021/09/17 12:26:41;;;;;;;6.30;4.30;;;;;;;;;;772145;179;918010;-64
2021/09/17 12:29:07;;;;;;;6.87;4.40;;;;;;;;;;770022;180;918857;-63
2021/09/17 12:31:34;;;;;;;7.23;4.40;;;;;;;;;;767022;180;919425;-64
2021/09/17 12:34:03;;;;;;;6.40;4.63;;;;;;;;;;772657;180;919560;-64
2021/09/17 12:36:29;;;;;;;8.40;4.33;;;;;;;;;;765650;179;919682;-63
2021/09/17 12:38:55;;;;;;;6.50;5.00;;;;;;;;;;768452;179;919961;-63
2021/09/17 12:41:21;;;;;;;8.03;4.70;;;;;;;;;;773349;179;915833;-64
2021/09/17 12:43:47;;;;;;;5.73;4.90;;;;;;;;;;774335;179;915694;-64
2021/09/17 12:46:13;;;;;;;6.67;4.80;;;;;;;;;;779954;178;917572;-64
2021/09/17 12:48:39;;;;;;;7.00;4.60;;;;;;;;;;780596;178;919741;-64
2021/09/17 12:51:05;;;;;;;6.03;5.40;;;;;;;;;;785301;178;919357;-62
2021/09/17 12:53:31;;;;;;;6.87;4.83;;;;;;;;;;773103;179;1027454;-64
2021/09/17 12:55:59;;;;;;;4.80;4.30;;;;;;;;;;789020;175;919086;-64
2021/09/17 12:58:30;;;;;;;6.27;4.47;;;;;;;;;;769883;182;919918;-64
2021/09/17 13:00:51;;;;;;;5.33;4.40;;;;;;;;;;782472;178;932092;-63
2021/09/17 13:03:17;;;;;;;4.37;3.97;;;;;;;;;;779590;178;919148;-64
2021/09/17 13:05:43;;;;;;;5.90;3.93;;;;;;;;;;776523;178;919683;-64
2021/09/17 13:08:09;;;;;;;4.53;3.57;;;;;;;;;;785588;178;919831;-64
2021/09/17 13:10:34;;;;;;;14.80;4.63;;;;;;;;;;780177;178;919243;-64
2021/09/17 13:13:00;;;;;;;5.90;4.20;;;;;;;;;;769750;179;920949;-63
2021/09/17 13:15:27;;;;;;;5.00;3.87;;;;;;;;;;771977;179;919909;-64
2021/09/17 13:17:53;;;;;;;5.20;4.07;;;;;;;;;;775003;177;916971;-64
2021/09/17 13:20:19;;;;;;;5.78;4.00;;;;;;;;;;773219;179;1124371;-66
2021/09/17 13:22:45;;;;;;;6.60;4.30;;;;;;;;;;771230;180;919050;-64
2021/09/17 13:25:11;;;;;;;9.67;4.40;;;;;;;;;;779264;178;918474;-63
2021/09/17 13:27:37;;;;;;;5.77;4.90;;;;;;;;;;770382;180;918377;-64
2021/09/17 13:30:02;;;;;;;6.47;4.90;;;;;;;;;;761184;181;919817;-65
2021/09/17 13:32:28;;;;;;;6.10;4.10;;;;;;;;;;778246;179;918884;-64
2021/09/17 13:34:54;;;;;;;9.30;5.07;;;;;;;;;;771070;179;919946;-64
2021/09/17 13:37:20;;;;;;;6.90;5.43;;;;;;;;;;776106;174;1040996;-66
2021/09/17 13:39:46;;;;;;;5.70;4.80;;;;;;;;;;768232;177;918707;-65
2021/09/17 13:42:12;;;;;;;5.10;4.17;;;;;;;;;;772137;178;920120;-65
2021/09/17 13:44:38;;;;;;;7.40;5.87;;;;;;;;;;780622;178;919546;-65
2021/09/17 13:47:03;;;;;;;6.80;5.20;;;;;;;;;;782756;178;919685;-64
2021/09/17 13:49:29;;;;;;;6.00;4.93;;;;;;;;;;755520;181;918820;-64
2021/09/17 13:51:55;;;;;;;5.90;5.07;;;;;;;;;;767226;179;918464;-64
2021/09/17 13:54:21;;;;;;;5.50;4.90;;;;;;;;;;776091;179;917738;-64
2021/09/17 13:56:47;;;;;;;10.60;5.43;;;;;;;;;;774590;180;918114;-64
2021/09/17 13:59:13;;;;;;;6.10;5.27;;;;;;;;;;779228;177;919213;-65
2021/09/17 14:01:39;;;;;;;9.17;4.83;;;;;;;;;;769766;179;920355;-65
2021/09/17 14:04:05;;;;;;;5.27;4.77;;;;;;;;;;777105;179;918930;-64
2021/09/17 14:06:31;;;;;;;10.70;5.03;;;;;;;;;;765832;179;920594;-65
2021/09/17 14:08:56;;;;;;;5.28;4.40;;;;;;;;;;769128;179;921088;-64
2021/09/17 14:11:22;;;;;;;5.78;4.40;;;;;;;;;;773426;179;920155;-65
2021/09/17 14:13:48;;;;;;;6.87;4.80;;;;;;;;;;779207;180;644400;-65